Terminal Aerodrome Forecast
Issued by NWS Melbourne, FL

Home | Current Version | Previous Version | Text Only | Print | Product List | Glossary On
Versions: 1 2 3 4 5 6 7 8 9 10 11 12 13 14 15 16 17 18 19 20 21 22 23 24 25 26 27 28
246
FTUS42 KMLB 310255 AAC
TAFMCO
TAF AMD
KMCO 310255Z 3103/3124 02010KT P6SM VCTS SCT035CB OVC100
      TEMPO 3103/3104 VRB15G25KT 3SM TSRA SCT020 BKN040CB
     FM310600 20002KT P6SM FEW010 SCT250
     FM311400 26005KT P6SM SCT035
     FM312000 24005KT P6SM VCTS SCT035CB BKN250=

USA.gov is the U.S. government's official web portal to all federal, state and local government web resources and services.